sensor_id;sensor_type;location;lat;lon;timestamp;temperature;humidity
63013;DHT22;62113;45.624;11.700;2023-05-02T00:01:06;17.40;67.80
63013;DHT22;62113;45.624;11.700;2023-05-02T00:03:32;17.40;67.80
63013;DHT22;62113;45.624;11.700;2023-05-02T00:05:59;17.40;67.80
63013;DHT22;62113;45.624;11.700;2023-05-02T00:08:25;17.40;67.80
63013;DHT22;62113;45.624;11.700;2023-05-02T00:10:50;17.40;67.90
63013;DHT22;62113;45.624;11.700;2023-05-02T00:13:16;17.40;68.00
63013;DHT22;62113;45.624;11.700;2023-05-02T00:15:42;17.40;68.00
63013;DHT22;62113;45.624;11.700;2023-05-02T00:18:07;17.50;67.80
63013;DHT22;62113;45.624;11.700;2023-05-02T00:20:33;17.40;67.80
63013;DHT22;62113;45.624;11.700;2023-05-02T00:22:58;17.40;67.80
63013;DHT22;62113;45.624;11.700;2023-05-02T00:25:24;17.40;67.80
63013;DHT22;62113;45.624;11.700;2023-05-02T00:27:49;17.50;67.80
63013;DHT22;62113;45.624;11.700;2023-05-02T00:30:16;17.40;67.80
63013;DHT22;62113;45.624;11.700;2023-05-02T00:32:42;17.40;67.80
63013;DHT22;62113;45.624;11.700;2023-05-02T00:35:08;17.40;67.80
63013;DHT22;62113;45.624;11.700;2023-05-02T00:37:34;17.50;67.70
63013;DHT22;62113;45.624;11.700;2023-05-02T00:39:59;17.40;67.70
63013;DHT22;62113;45.624;11.700;2023-05-02T00:42:25;17.40;67.70
63013;DHT22;62113;45.624;11.700;2023-05-02T00:44:50;17.40;67.70
63013;DHT22;62113;45.624;11.700;2023-05-02T00:47:16;17.30;67.70
63013;DHT22;62113;45.624;11.700;2023-05-02T00:49:42;17.40;67.70
63013;DHT22;62113;45.624;11.700;2023-05-02T00:52:08;17.40;67.80
63013;DHT22;62113;45.624;11.700;2023-05-02T00:54:36;17.40;67.70
63013;DHT22;62113;45.624;11.700;2023-05-02T00:57:02;17.40;67.80
63013;DHT22;62113;45.624;11.700;2023-05-02T00:59:28;17.40;67.70
63013;DHT22;62113;45.624;11.700;2023-05-02T01:12:57;17.30;67.70
63013;DHT22;62113;45.624;11.700;2023-05-02T01:15:24;17.30;67.70
63013;DHT22;62113;45.624;11.700;2023-05-02T01:17:51;17.30;67.70
63013;DHT22;62113;45.624;11.700;2023-05-02T01:20:20;17.30;67.70
63013;DHT22;62113;45.624;11.700;2023-05-02T01:22:48;17.30;67.80
63013;DHT22;62113;45.624;11.700;2023-05-02T01:25:42;17.30;67.70
63013;DHT22;62113;45.624;11.700;2023-05-02T01:28:20;17.20;67.80
63013;DHT22;62113;45.624;11.700;2023-05-02T01:30:48;17.30;67.90
63013;DHT22;62113;45.624;11.700;2023-05-02T01:33:16;17.20;67.90
63013;DHT22;62113;45.624;11.700;2023-05-02T01:35:43;17.30;68.00
63013;DHT22;62113;45.624;11.700;2023-05-02T01:38:13;17.30;68.00
63013;DHT22;62113;45.624;11.700;2023-05-02T01:40:40;17.20;68.00
63013;DHT22;62113;45.624;11.700;2023-05-02T01:43:10;17.30;68.10
63013;DHT22;62113;45.624;11.700;2023-05-02T01:45:37;17.20;68.10
63013;DHT22;62113;45.624;11.700;2023-05-02T01:48:05;17.20;68.00
63013;DHT22;62113;45.624;11.700;2023-05-02T01:50:33;17.20;68.10
63013;DHT22;62113;45.624;11.700;2023-05-02T01:52:59;17.20;68.20
63013;DHT22;62113;45.624;11.700;2023-05-02T01:55:28;17.20;68.10
63013;DHT22;62113;45.624;11.700;2023-05-02T01:57:55;17.20;68.20
63013;DHT22;62113;45.624;11.700;2023-05-02T02:00:22;17.20;68.20
63013;DHT22;62113;45.624;11.700;2023-05-02T02:02:50;17.20;68.30
63013;DHT22;62113;45.624;11.700;2023-05-02T02:05:17;17.10;68.50
63013;DHT22;62113;45.624;11.700;2023-05-02T02:07:45;17.20;68.40
63013;DHT22;62113;45.624;11.700;2023-05-02T02:10:11;17.10;68.30
63013;DHT22;62113;45.624;11.700;2023-05-02T02:13:05;17.10;68.40
63013;DHT22;62113;45.624;11.700;2023-05-02T02:15:34;17.10;68.50
63013;DHT22;62113;45.624;11.700;2023-05-02T02:18:11;17.10;68.40
63013;DHT22;62113;45.624;11.700;2023-05-02T02:20:42;17.10;68.50
63013;DHT22;62113;45.624;11.700;2023-05-02T02:23:08;17.10;68.60
63013;DHT22;62113;45.624;11.700;2023-05-02T02:25:35;17.10;68.60
63013;DHT22;62113;45.624;11.700;2023-05-02T02:28:02;17.10;68.70
63013;DHT22;62113;45.624;11.700;2023-05-02T02:30:27;17.10;68.80
63013;DHT22;62113;45.624;11.700;2023-05-02T02:32:53;17.10;68.80
63013;DHT22;62113;45.624;11.700;2023-05-02T02:35:19;17.10;68.80
63013;DHT22;62113;45.624;11.700;2023-05-02T02:37:53;17.10;68.90
63013;DHT22;62113;45.624;11.700;2023-05-02T02:43:04;17.10;68.80
63013;DHT22;62113;45.624;11.700;2023-05-02T02:46:12;17.10;68.80
63013;DHT22;62113;45.624;11.700;2023-05-02T02:51:43;17.10;68.80
63013;DHT22;62113;45.624;11.700;2023-05-02T02:56:42;17.00;69.00
63013;DHT22;62113;45.624;11.700;2023-05-02T02:59:32;17.10;68.90
63013;DHT22;62113;45.624;11.700;2023-05-02T03:02:08;17.10;69.00
63013;DHT22;62113;45.624;11.700;2023-05-02T03:04:39;17.10;69.00
63013;DHT22;62113;45.624;11.700;2023-05-02T03:07:06;17.10;69.00
63013;DHT22;62113;45.624;11.700;2023-05-02T03:09:42;17.00;69.20
63013;DHT22;62113;45.624;11.700;2023-05-02T03:12:09;17.00;69.20
63013;DHT22;62113;45.624;11.700;2023-05-02T03:14:35;17.00;69.10
63013;DHT22;62113;45.624;11.700;2023-05-02T03:17:03;16.90;69.30
63013;DHT22;62113;45.624;11.700;2023-05-02T03:19:28;16.90;69.20
63013;DHT22;62113;45.624;11.700;2023-05-02T03:21:54;16.90;69.20
63013;DHT22;62113;45.624;11.700;2023-05-02T03:24:20;16.90;69.20
63013;DHT22;62113;45.624;11.700;2023-05-02T03:26:46;16.90;69.30
63013;DHT22;62113;45.624;11.700;2023-05-02T03:29:15;16.90;69.50
63013;DHT22;62113;45.624;11.700;2023-05-02T03:31:41;16.90;69.50
63013;DHT22;62113;45.624;11.700;2023-05-02T03:34:07;16.90;69.50
63013;DHT22;62113;45.624;11.700;2023-05-02T03:36:32;16.90;69.60
63013;DHT22;62113;45.624;11.700;2023-05-02T03:38:58;16.90;69.70
63013;DHT22;62113;45.624;11.700;2023-05-02T03:41:24;16.90;69.80
63013;DHT22;62113;45.624;11.700;2023-05-02T03:43:50;16.90;69.80
63013;DHT22;62113;45.624;11.700;2023-05-02T03:46:16;16.90;69.70
63013;DHT22;62113;45.624;11.700;2023-05-02T03:48:41;17.00;69.80
63013;DHT22;62113;45.624;11.700;2023-05-02T03:51:07;16.90;69.80
63013;DHT22;62113;45.624;11.700;2023-05-02T03:53:34;16.90;69.80
63013;DHT22;62113;45.624;11.700;2023-05-02T03:56:00;16.90;69.80
63013;DHT22;62113;45.624;11.700;2023-05-02T03:58:25;17.00;69.80
63013;DHT22;62113;45.624;11.700;2023-05-02T04:00:51;17.00;69.80
63013;DHT22;62113;45.624;11.700;2023-05-02T04:03:18;17.00;69.70
63013;DHT22;62113;45.624;11.700;2023-05-02T04:05:43;17.00;69.70
63013;DHT22;62113;45.624;11.700;2023-05-02T04:08:10;17.00;69.70
63013;DHT22;62113;45.624;11.700;2023-05-02T04:10:35;16.90;69.60
63013;DHT22;62113;45.624;11.700;2023-05-02T04:13:02;17.00;69.60
63013;DHT22;62113;45.624;11.700;2023-05-02T04:15:28;17.00;69.70
63013;DHT22;62113;45.624;11.700;2023-05-02T04:17:54;16.90;69.60
63013;DHT22;62113;45.624;11.700;2023-05-02T04:20:21;17.00;69.70
63013;DHT22;62113;45.624;11.700;2023-05-02T04:22:47;17.00;69.60
63013;DHT22;62113;45.624;11.700;2023-05-02T04:25:14;17.00;69.70
63013;DHT22;62113;45.624;11.700;2023-05-02T04:27:40;17.00;69.60
63013;DHT22;62113;45.624;11.700;2023-05-02T04:30:06;17.00;69.60
63013;DHT22;62113;45.624;11.700;2023-05-02T04:32:32;17.00;69.60
63013;DHT22;62113;45.624;11.700;2023-05-02T04:34:58;17.00;69.60
63013;DHT22;62113;45.624;11.700;2023-05-02T04:37:24;17.00;69.60
63013;DHT22;62113;45.624;11.700;2023-05-02T04:39:50;17.00;69.60
63013;DHT22;62113;45.624;11.700;2023-05-02T04:42:15;17.00;69.60
63013;DHT22;62113;45.624;11.700;2023-05-02T04:44:41;17.00;69.50
63013;DHT22;62113;45.624;11.700;2023-05-02T04:47:06;17.00;69.60
63013;DHT22;62113;45.624;11.700;2023-05-02T04:49:32;17.00;69.60
63013;DHT22;62113;45.624;11.700;2023-05-02T04:51:58;17.00;69.50
63013;DHT22;62113;45.624;11.700;2023-05-02T04:54:23;17.00;69.60
63013;DHT22;62113;45.624;11.700;2023-05-02T04:56:49;17.10;69.50
63013;DHT22;62113;45.624;11.700;2023-05-02T04:59:15;17.00;69.50
63013;DHT22;62113;45.624;11.700;2023-05-02T05:01:41;17.10;69.50
63013;DHT22;62113;45.624;11.700;2023-05-02T05:04:07;17.10;69.50
63013;DHT22;62113;45.624;11.700;2023-05-02T05:06:32;17.10;69.40
63013;DHT22;62113;45.624;11.700;2023-05-02T05:08:58;17.10;69.40
63013;DHT22;62113;45.624;11.700;2023-05-02T05:11:24;17.10;69.40
63013;DHT22;62113;45.624;11.700;2023-05-02T05:13:50;17.20;69.50
63013;DHT22;62113;45.624;11.700;2023-05-02T05:16:16;17.20;69.50
63013;DHT22;62113;45.624;11.700;2023-05-02T05:18:41;17.20;69.50
63013;DHT22;62113;45.624;11.700;2023-05-02T05:21:08;17.20;69.60
63013;DHT22;62113;45.624;11.700;2023-05-02T05:23:34;17.20;69.50
63013;DHT22;62113;45.624;11.700;2023-05-02T05:26:14;17.20;69.60
63013;DHT22;62113;45.624;11.700;2023-05-02T05:28:40;17.20;69.50
63013;DHT22;62113;45.624;11.700;2023-05-02T05:31:11;17.20;69.60
63013;DHT22;62113;45.624;11.700;2023-05-02T05:33:37;17.20;69.60
63013;DHT22;62113;45.624;11.700;2023-05-02T05:38:30;17.20;69.70
63013;DHT22;62113;45.624;11.700;2023-05-02T05:40:55;17.20;69.70
63013;DHT22;62113;45.624;11.700;2023-05-02T05:43:21;17.20;69.80
63013;DHT22;62113;45.624;11.700;2023-05-02T05:45:47;17.30;69.80
63013;DHT22;62113;45.624;11.700;2023-05-02T05:48:15;17.30;69.70
63013;DHT22;62113;45.624;11.700;2023-05-02T05:50:41;17.30;69.70
63013;DHT22;62113;45.624;11.700;2023-05-02T05:53:07;17.30;69.70
63013;DHT22;62113;45.624;11.700;2023-05-02T05:55:32;17.40;69.70
63013;DHT22;62113;45.624;11.700;2023-05-02T05:57:58;17.40;69.60
63013;DHT22;62113;45.624;11.700;2023-05-02T06:00:23;17.40;69.60
63013;DHT22;62113;45.624;11.700;2023-05-02T06:02:49;17.40;69.60
63013;DHT22;62113;45.624;11.700;2023-05-02T06:05:15;17.40;69.60
63013;DHT22;62113;45.624;11.700;2023-05-02T06:07:41;17.50;69.60
63013;DHT22;62113;45.624;11.700;2023-05-02T06:10:07;17.40;69.70
63013;DHT22;62113;45.624;11.700;2023-05-02T06:12:34;17.40;69.70
63013;DHT22;62113;45.624;11.700;2023-05-02T06:15:00;17.40;69.70
63013;DHT22;62113;45.624;11.700;2023-05-02T06:17:26;17.50;70.00
63013;DHT22;62113;45.624;11.700;2023-05-02T06:19:51;17.40;69.90
63013;DHT22;62113;45.624;11.700;2023-05-02T06:22:17;17.50;69.80
63013;DHT22;62113;45.624;11.700;2023-05-02T06:24:42;17.50;69.80
63013;DHT22;62113;45.624;11.700;2023-05-02T06:27:08;17.60;69.70
63013;DHT22;62113;45.624;11.700;2023-05-02T06:29:34;17.60;69.80
63013;DHT22;62113;45.624;11.700;2023-05-02T06:31:59;17.70;69.50
63013;DHT22;62113;45.624;11.700;2023-05-02T06:34:25;17.70;69.30
63013;DHT22;62113;45.624;11.700;2023-05-02T06:36:56;17.80;68.90
63013;DHT22;62113;45.624;11.700;2023-05-02T06:39:22;17.80;68.40
63013;DHT22;62113;45.624;11.700;2023-05-02T06:41:47;18.00;68.00
63013;DHT22;62113;45.624;11.700;2023-05-02T06:44:13;18.10;67.80
63013;DHT22;62113;45.624;11.700;2023-05-02T06:46:39;18.10;67.60
63013;DHT22;62113;45.624;11.700;2023-05-02T06:49:04;18.20;67.80
63013;DHT22;62113;45.624;11.700;2023-05-02T06:51:30;18.20;67.70
63013;DHT22;62113;45.624;11.700;2023-05-02T06:53:56;18.10;67.80
63013;DHT22;62113;45.624;11.700;2023-05-02T06:56:23;18.20;68.00
63013;DHT22;62113;45.624;11.700;2023-05-02T06:58:50;18.10;67.90
63013;DHT22;62113;45.624;11.700;2023-05-02T07:01:16;18.20;67.90
63013;DHT22;62113;45.624;11.700;2023-05-02T07:03:41;18.20;68.20
63013;DHT22;62113;45.624;11.700;2023-05-02T07:06:07;18.10;68.10
63013;DHT22;62113;45.624;11.700;2023-05-02T07:08:32;18.10;68.00
63013;DHT22;62113;45.624;11.700;2023-05-02T07:10:58;18.20;68.00
63013;DHT22;62113;45.624;11.700;2023-05-02T07:13:24;18.10;67.90
63013;DHT22;62113;45.624;11.700;2023-05-02T07:15:49;18.20;67.90
63013;DHT22;62113;45.624;11.700;2023-05-02T07:18:15;18.20;67.90
63013;DHT22;62113;45.624;11.700;2023-05-02T07:20:40;18.20;67.90
63013;DHT22;62113;45.624;11.700;2023-05-02T07:23:07;18.20;68.00
63013;DHT22;62113;45.624;11.700;2023-05-02T07:25:33;18.20;67.90
63013;DHT22;62113;45.624;11.700;2023-05-02T07:27:59;18.20;68.00
63013;DHT22;62113;45.624;11.700;2023-05-02T07:30:25;18.20;68.20
63013;DHT22;62113;45.624;11.700;2023-05-02T07:32:51;18.20;67.90
63013;DHT22;62113;45.624;11.700;2023-05-02T07:35:16;18.30;67.90
63013;DHT22;62113;45.624;11.700;2023-05-02T07:37:42;18.30;67.90
63013;DHT22;62113;45.624;11.700;2023-05-02T07:40:08;18.30;68.00
63013;DHT22;62113;45.624;11.700;2023-05-02T07:42:34;18.40;67.90
63013;DHT22;62113;45.624;11.700;2023-05-02T07:45:01;18.30;67.90
63013;DHT22;62113;45.624;11.700;2023-05-02T07:47:27;18.30;68.00
63013;DHT22;62113;45.624;11.700;2023-05-02T07:49:54;18.40;68.00
63013;DHT22;62113;45.624;11.700;2023-05-02T07:52:20;18.40;68.00
63013;DHT22;62113;45.624;11.700;2023-05-02T07:54:50;18.40;68.00
63013;DHT22;62113;45.624;11.700;2023-05-02T07:57:16;18.50;67.90
63013;DHT22;62113;45.624;11.700;2023-05-02T07:59:41;18.50;68.10
63013;DHT22;62113;45.624;11.700;2023-05-02T08:02:07;18.50;67.90
63013;DHT22;62113;45.624;11.700;2023-05-02T08:04:33;18.50;67.90
63013;DHT22;62113;45.624;11.700;2023-05-02T08:06:59;18.60;67.90
63013;DHT22;62113;45.624;11.700;2023-05-02T08:09:25;18.60;68.00
63013;DHT22;62113;45.624;11.700;2023-05-02T08:11:51;18.60;67.90
63013;DHT22;62113;45.624;11.700;2023-05-02T08:14:16;18.60;68.00
63013;DHT22;62113;45.624;11.700;2023-05-02T08:16:42;18.60;68.00
63013;DHT22;62113;45.624;11.700;2023-05-02T08:19:08;18.60;68.10
63013;DHT22;62113;45.624;11.700;2023-05-02T08:21:34;18.60;68.00
63013;DHT22;62113;45.624;11.700;2023-05-02T08:24:00;18.70;68.10
63013;DHT22;62113;45.624;11.700;2023-05-02T08:26:26;18.70;68.10
63013;DHT22;62113;45.624;11.700;2023-05-02T08:28:53;18.70;68.10
63013;DHT22;62113;45.624;11.700;2023-05-02T08:31:19;18.70;68.10
63013;DHT22;62113;45.624;11.700;2023-05-02T08:33:44;18.70;68.20
63013;DHT22;62113;45.624;11.700;2023-05-02T08:36:11;18.80;68.10
63013;DHT22;62113;45.624;11.700;2023-05-02T08:38:37;18.80;68.20
63013;DHT22;62113;45.624;11.700;2023-05-02T08:41:09;18.80;68.20
63013;DHT22;62113;45.624;11.700;2023-05-02T08:43:35;18.90;68.20
63013;DHT22;62113;45.624;11.700;2023-05-02T08:46:04;18.90;68.20
63013;DHT22;62113;45.624;11.700;2023-05-02T08:48:32;19.00;68.20
63013;DHT22;62113;45.624;11.700;2023-05-02T08:50:59;19.00;68.20
63013;DHT22;62113;45.624;11.700;2023-05-02T08:53:27;19.10;68.20
63013;DHT22;62113;45.624;11.700;2023-05-02T08:55:54;19.10;68.20
63013;DHT22;62113;45.624;11.700;2023-05-02T08:58:19;19.10;68.10
63013;DHT22;62113;45.624;11.700;2023-05-02T09:00:47;19.20;68.10
63013;DHT22;62113;45.624;11.700;2023-05-02T09:03:32;19.20;68.20
63013;DHT22;62113;45.624;11.700;2023-05-02T09:08:29;19.20;68.00
63013;DHT22;62113;45.624;11.700;2023-05-02T09:10:54;19.30;68.00
63013;DHT22;62113;45.624;11.700;2023-05-02T09:16:18;19.40;67.90
63013;DHT22;62113;45.624;11.700;2023-05-02T09:18:44;19.40;67.90
63013;DHT22;62113;45.624;11.700;2023-05-02T09:21:21;19.40;67.90
63013;DHT22;62113;45.624;11.700;2023-05-02T09:23:53;19.50;67.80
63013;DHT22;62113;45.624;11.700;2023-05-02T09:26:23;19.50;67.70
63013;DHT22;62113;45.624;11.700;2023-05-02T09:28:52;19.60;67.80
63013;DHT22;62113;45.624;11.700;2023-05-02T09:31:29;19.70;67.80
63013;DHT22;62113;45.624;11.700;2023-05-02T09:34:10;19.70;67.90
63013;DHT22;62113;45.624;11.700;2023-05-02T09:36:47;19.70;67.90
63013;DHT22;62113;45.624;11.700;2023-05-02T09:39:17;19.70;67.80
63013;DHT22;62113;45.624;11.700;2023-05-02T09:41:45;19.80;67.80
63013;DHT22;62113;45.624;11.700;2023-05-02T09:44:22;19.80;67.70
63013;DHT22;62113;45.624;11.700;2023-05-02T09:46:54;19.80;67.50
63013;DHT22;62113;45.624;11.700;2023-05-02T09:49:44;19.80;67.40
63013;DHT22;62113;45.624;11.700;2023-05-02T09:52:15;19.80;67.40
63013;DHT22;62113;45.624;11.700;2023-05-02T09:54:41;19.80;67.40
63013;DHT22;62113;45.624;11.700;2023-05-02T09:57:06;19.80;67.30
63013;DHT22;62113;45.624;11.700;2023-05-02T09:59:32;19.80;67.20
63013;DHT22;62113;45.624;11.700;2023-05-02T10:02:00;19.90;67.40
63013;DHT22;62113;45.624;11.700;2023-05-02T10:04:27;19.80;67.30
63013;DHT22;62113;45.624;11.700;2023-05-02T10:06:54;19.80;67.30
63013;DHT22;62113;45.624;11.700;2023-05-02T10:09:20;19.80;67.30
63013;DHT22;62113;45.624;11.700;2023-05-02T10:11:50;19.80;67.40
63013;DHT22;62113;45.624;11.700;2023-05-02T10:14:17;19.80;67.50
63013;DHT22;62113;45.624;11.700;2023-05-02T10:19:32;19.80;67.70
63013;DHT22;62113;45.624;11.700;2023-05-02T10:22:02;19.80;67.60
63013;DHT22;62113;45.624;11.700;2023-05-02T10:24:31;19.90;67.60
63013;DHT22;62113;45.624;11.700;2023-05-02T10:26:57;20.00;67.60
63013;DHT22;62113;45.624;11.700;2023-05-02T10:29:26;20.00;67.50
63013;DHT22;62113;45.624;11.700;2023-05-02T10:31:54;20.10;67.60
63013;DHT22;62113;45.624;11.700;2023-05-02T10:34:19;20.20;67.50
63013;DHT22;62113;45.624;11.700;2023-05-02T10:36:46;20.30;67.70
63013;DHT22;62113;45.624;11.700;2023-05-02T10:39:12;20.50;67.70
63013;DHT22;62113;45.624;11.700;2023-05-02T10:41:39;20.60;67.20
63013;DHT22;62113;45.624;11.700;2023-05-02T10:44:06;20.70;66.90
63013;DHT22;62113;45.624;11.700;2023-05-02T10:46:37;20.80;66.70
63013;DHT22;62113;45.624;11.700;2023-05-02T10:49:12;21.00;66.50
63013;DHT22;62113;45.624;11.700;2023-05-02T10:51:41;21.10;66.40
63013;DHT22;62113;45.624;11.700;2023-05-02T10:59:33;21.10;65.90
63013;DHT22;62113;45.624;11.700;2023-05-02T11:01:59;21.00;65.90
63013;DHT22;62113;45.624;11.700;2023-05-02T11:05:07;21.10;65.90
63013;DHT22;62113;45.624;11.700;2023-05-02T11:07:35;21.00;65.90
63013;DHT22;62113;45.624;11.700;2023-05-02T11:12:52;20.90;65.80
63013;DHT22;62113;45.624;11.700;2023-05-02T11:18:03;20.90;65.90
63013;DHT22;62113;45.624;11.700;2023-05-02T11:20:32;20.80;65.60
63013;DHT22;62113;45.624;11.700;2023-05-02T11:23:18;20.80;65.60
63013;DHT22;62113;45.624;11.700;2023-05-02T11:25:57;20.90;65.70
63013;DHT22;62113;45.624;11.700;2023-05-02T11:28:40;20.80;65.80
63013;DHT22;62113;45.624;11.700;2023-05-02T11:33:56;20.70;65.90
63013;DHT22;62113;45.624;11.700;2023-05-02T11:36:29;20.70;66.00
63013;DHT22;62113;45.624;11.700;2023-05-02T11:38:55;20.70;66.10
63013;DHT22;62113;45.624;11.700;2023-05-02T11:41:20;20.60;66.20
63013;DHT22;62113;45.624;11.700;2023-05-02T11:43:46;20.60;66.10
63013;DHT22;62113;45.624;11.700;2023-05-02T11:46:12;20.50;66.20
63013;DHT22;62113;45.624;11.700;2023-05-02T11:48:37;20.50;66.40
63013;DHT22;62113;45.624;11.700;2023-05-02T11:51:03;20.50;66.50
63013;DHT22;62113;45.624;11.700;2023-05-02T11:53:31;20.60;66.50
63013;DHT22;62113;45.624;11.700;2023-05-02T11:56:02;20.60;66.50
63013;DHT22;62113;45.624;11.700;2023-05-02T11:58:30;20.50;66.70
63013;DHT22;62113;45.624;11.700;2023-05-02T12:00:58;20.60;66.60
63013;DHT22;62113;45.624;11.700;2023-05-02T12:03:31;20.70;66.70
63013;DHT22;62113;45.624;11.700;2023-05-02T12:06:18;20.70;66.70
63013;DHT22;62113;45.624;11.700;2023-05-02T12:08:44;20.70;66.60
63013;DHT22;62113;45.624;11.700;2023-05-02T12:11:13;20.70;66.60
63013;DHT22;62113;45.624;11.700;2023-05-02T12:13:44;20.70;66.40
63013;DHT22;62113;45.624;11.700;2023-05-02T12:16:11;20.80;66.30
63013;DHT22;62113;45.624;11.700;2023-05-02T12:18:37;20.80;66.30
63013;DHT22;62113;45.624;11.700;2023-05-02T12:21:03;20.70;65.50
63013;DHT22;62113;45.624;11.700;2023-05-02T12:23:29;20.40;66.40
63013;DHT22;62113;45.624;11.700;2023-05-02T12:25:55;20.30;67.70
63013;DHT22;62113;45.624;11.700;2023-05-02T12:28:21;20.20;68.40
63013;DHT22;62113;45.624;11.700;2023-05-02T12:30:49;20.10;68.60
63013;DHT22;62113;45.624;11.700;2023-05-02T12:33:16;20.00;68.70
63013;DHT22;62113;45.624;11.700;2023-05-02T12:35:42;19.90;68.00
63013;DHT22;62113;45.624;11.700;2023-05-02T12:38:18;19.90;67.90
63013;DHT22;62113;45.624;11.700;2023-05-02T12:40:52;19.80;67.60
63013;DHT22;62113;45.624;11.700;2023-05-02T12:43:19;19.80;67.70
63013;DHT22;62113;45.624;11.700;2023-05-02T12:45:46;19.70;68.20
63013;DHT22;62113;45.624;11.700;2023-05-02T12:48:22;19.70;68.40
63013;DHT22;62113;45.624;11.700;2023-05-02T12:50:48;19.80;69.20
63013;DHT22;62113;45.624;11.700;2023-05-02T12:53:14;19.70;69.10
63013;DHT22;62113;45.624;11.700;2023-05-02T12:55:40;19.80;69.10
63013;DHT22;62113;45.624;11.700;2023-05-02T12:58:10;19.90;69.40
63013;DHT22;62113;45.624;11.700;2023-05-02T13:00:40;19.80;68.10
63013;DHT22;62113;45.624;11.700;2023-05-02T13:03:07;19.80;66.40
63013;DHT22;62113;45.624;11.700;2023-05-02T13:05:34;19.90;66.70
63013;DHT22;62113;45.624;11.700;2023-05-02T13:08:00;19.80;65.60
63013;DHT22;62113;45.624;11.700;2023-05-02T13:10:25;19.80;65.40
63013;DHT22;62113;45.624;11.700;2023-05-02T13:12:52;19.80;65.00
63013;DHT22;62113;45.624;11.700;2023-05-02T13:15:18;19.80;65.00
63013;DHT22;62113;45.624;11.700;2023-05-02T13:17:44;19.80;65.50
63013;DHT22;62113;45.624;11.700;2023-05-02T13:20:10;19.80;66.20
63013;DHT22;62113;45.624;11.700;2023-05-02T13:22:36;19.80;66.70
63013;DHT22;62113;45.624;11.700;2023-05-02T13:25:06;19.80;66.00
63013;DHT22;62113;45.624;11.700;2023-05-02T13:27:32;19.80;65.60
63013;DHT22;62113;45.624;11.700;2023-05-02T13:30:01;19.70;65.80
63013;DHT22;62113;45.624;11.700;2023-05-02T13:32:26;19.70;64.50
63013;DHT22;62113;45.624;11.700;2023-05-02T13:34:53;19.70;63.90
63013;DHT22;62113;45.624;11.700;2023-05-02T13:37:18;19.70;64.10
63013;DHT22;62113;45.624;11.700;2023-05-02T13:39:44;19.60;64.50
63013;DHT22;62113;45.624;11.700;2023-05-02T13:42:10;19.60;65.70
63013;DHT22;62113;45.624;11.700;2023-05-02T13:44:36;19.60;65.40
63013;DHT22;62113;45.624;11.700;2023-05-02T13:47:02;19.50;65.30
63013;DHT22;62113;45.624;11.700;2023-05-02T13:49:28;19.50;65.30
63013;DHT22;62113;45.624;11.700;2023-05-02T13:51:54;19.50;65.20
63013;DHT22;62113;45.624;11.700;2023-05-02T13:54:20;19.50;64.80
63013;DHT22;62113;45.624;11.700;2023-05-02T13:56:45;19.40;64.40
63013;DHT22;62113;45.624;11.700;2023-05-02T13:59:11;19.50;64.40
63013;DHT22;62113;45.624;11.700;2023-05-02T14:01:37;19.50;65.20
63013;DHT22;62113;45.624;11.700;2023-05-02T14:04:07;19.50;65.10
63013;DHT22;62113;45.624;11.700;2023-05-02T14:06:34;19.60;65.00
63013;DHT22;62113;45.624;11.700;2023-05-02T14:09:00;19.70;64.50
63013;DHT22;62113;45.624;11.700;2023-05-02T14:11:25;19.70;63.20
63013;DHT22;62113;45.624;11.700;2023-05-02T14:13:51;19.60;61.50
63013;DHT22;62113;45.624;11.700;2023-05-02T14:16:17;19.70;62.10
63013;DHT22;62113;45.624;11.700;2023-05-02T14:18:42;19.60;62.60
63013;DHT22;62113;45.624;11.700;2023-05-02T14:21:10;19.60;62.10
63013;DHT22;62113;45.624;11.700;2023-05-02T14:23:36;19.60;62.00
63013;DHT22;62113;45.624;11.700;2023-05-02T14:26:01;19.60;62.20
63013;DHT22;62113;45.624;11.700;2023-05-02T14:28:28;19.60;62.50
63013;DHT22;62113;45.624;11.700;2023-05-02T14:30:53;19.70;62.80
63013;DHT22;62113;45.624;11.700;2023-05-02T14:33:19;19.60;62.90
63013;DHT22;62113;45.624;11.700;2023-05-02T14:35:45;19.70;62.40
63013;DHT22;62113;45.624;11.700;2023-05-02T14:38:11;19.70;62.60
63013;DHT22;62113;45.624;11.700;2023-05-02T14:40:36;19.70;62.70
63013;DHT22;62113;45.624;11.700;2023-05-02T14:43:02;19.70;62.60
63013;DHT22;62113;45.624;11.700;2023-05-02T14:45:28;19.70;62.80
63013;DHT22;62113;45.624;11.700;2023-05-02T14:47:53;19.70;62.70
63013;DHT22;62113;45.624;11.700;2023-05-02T14:50:20;19.70;62.80
63013;DHT22;62113;45.624;11.700;2023-05-02T14:52:45;19.70;63.00
63013;DHT22;62113;45.624;11.700;2023-05-02T14:55:11;19.70;62.80
63013;DHT22;62113;45.624;11.700;2023-05-02T14:57:37;19.70;62.50
63013;DHT22;62113;45.624;11.700;2023-05-02T15:00:04;19.80;62.90
63013;DHT22;62113;45.624;11.700;2023-05-02T15:02:32;19.80;62.30
63013;DHT22;62113;45.624;11.700;2023-05-02T15:04:58;19.80;62.50
63013;DHT22;62113;45.624;11.700;2023-05-02T15:07:23;19.80;61.40
63013;DHT22;62113;45.624;11.700;2023-05-02T15:09:49;19.90;61.90
63013;DHT22;62113;45.624;11.700;2023-05-02T15:12:14;19.80;61.70
63013;DHT22;62113;45.624;11.700;2023-05-02T15:14:40;19.80;62.00
63013;DHT22;62113;45.624;11.700;2023-05-02T15:17:06;19.80;62.00
63013;DHT22;62113;45.624;11.700;2023-05-02T15:19:32;19.80;62.10
63013;DHT22;62113;45.624;11.700;2023-05-02T15:21:57;19.80;62.00
63013;DHT22;62113;45.624;11.700;2023-05-02T15:24:23;19.70;61.70
63013;DHT22;62113;45.624;11.700;2023-05-02T15:26:49;19.60;62.10
63013;DHT22;62113;45.624;11.700;2023-05-02T15:29:15;19.60;62.20
63013;DHT22;62113;45.624;11.700;2023-05-02T15:31:41;19.50;62.10
63013;DHT22;62113;45.624;11.700;2023-05-02T15:34:07;19.40;62.30
63013;DHT22;62113;45.624;11.700;2023-05-02T15:36:32;19.40;62.70
63013;DHT22;62113;45.624;11.700;2023-05-02T15:39:02;19.40;62.90
63013;DHT22;62113;45.624;11.700;2023-05-02T15:41:27;19.40;62.80
63013;DHT22;62113;45.624;11.700;2023-05-02T15:43:53;19.40;62.80
63013;DHT22;62113;45.624;11.700;2023-05-02T15:46:19;19.40;62.60
63013;DHT22;62113;45.624;11.700;2023-05-02T15:48:44;19.40;62.70
63013;DHT22;62113;45.624;11.700;2023-05-02T15:51:10;19.30;62.60
63013;DHT22;62113;45.624;11.700;2023-05-02T15:53:37;19.30;62.80
63013;DHT22;62113;45.624;11.700;2023-05-02T15:56:15;19.30;63.10
63013;DHT22;62113;45.624;11.700;2023-05-02T15:58:41;19.20;63.20
63013;DHT22;62113;45.624;11.700;2023-05-02T16:01:06;19.10;64.10